Time;durP1;ratioP1;P1;durP2;ratioP2;P2;SDS_P1;SDS_P2;PMS_P1;PMS_P2;Temp;Humidity;BMP_temperature;BMP_pressure;BME280_temperature;BME280_humidity;BME280_pressure;Samples;Min_cycle;Max_cycle;Signal;HPM_P1;HPM_P2
2022/11/02 00:00:54;;;;;;;5.72;1.08;;;12.40;99.90;;;;;;5068314;28;20049;-82
2022/11/02 00:03:21;;;;;;;11.20;1.30;;;12.50;99.90;;;;;;5085256;28;20037;-82
2022/11/02 00:05:48;;;;;;;11.13;2.05;;;12.50;99.90;;;;;;5068963;28;20040;-82
2022/11/02 00:08:14;;;;;;;5.93;0.90;;;12.50;99.90;;;;;;5051960;28;20120;-82
2022/11/02 00:10:41;;;;;;;6.47;1.10;;;12.60;99.90;;;;;;5052477;28;20520;-82
2022/11/02 00:13:08;;;;;;;8.90;1.17;;;12.50;99.90;;;;;;5035652;28;20819;-82
2022/11/02 00:15:36;;;;;;;6.97;1.20;;;12.50;99.90;;;;;;5036787;28;20044;-82
2022/11/02 00:18:10;;;;;;;5.78;1.20;;;12.50;99.90;;;;;;5068622;28;20040;-82
2022/11/02 00:20:40;;;;;;;8.63;1.17;;;12.50;99.90;;;;;;5068894;28;20045;-82
2022/11/02 00:23:09;;;;;;;8.88;0.98;;;12.50;99.90;;;;;;5085182;28;20056;-82
2022/11/02 00:25:41;;;;;;;6.43;0.93;;;12.50;99.90;;;;;;5068709;28;20048;-82
2022/11/02 00:28:09;;;;;;;4.82;0.90;;;12.40;99.90;;;;;;5068489;28;20086;-82
2022/11/02 00:30:37;;;;;;;8.88;1.08;;;12.20;99.90;;;;;;5119181;28;20107;-82
2022/11/02 00:33:03;;;;;;;2.92;0.85;;;12.40;99.90;;;;;;5101880;28;20048;-82
2022/11/02 00:35:30;;;;;;;4.53;1.10;;;12.30;99.90;;;;;;5068760;28;20045;-82
2022/11/02 00:37:57;;;;;;;5.10;1.08;;;12.20;99.90;;;;;;5068449;28;20055;-82
2022/11/02 00:40:23;;;;;;;2.95;0.70;;;12.20;99.90;;;;;;5084963;28;20056;-82
2022/11/02 00:42:50;;;;;;;4.60;0.88;;;12.20;99.90;;;;;;5085207;28;20075;-82
2022/11/02 00:45:17;;;;;;;11.30;1.65;;;12.20;99.90;;;;;;5084838;28;20045;-82
2022/11/02 00:47:43;;;;;;;4.20;0.95;;;12.20;99.90;;;;;;5133031;28;20037;-82
2022/11/02 00:50:10;;;;;;;6.20;1.17;;;12.20;99.90;;;;;;5072229;28;20079;-82
2022/11/02 00:52:41;;;;;;;5.88;1.27;;;12.20;99.90;;;;;;5079838;28;20107;-82
2022/11/02 00:55:09;;;;;;;4.10;1.10;;;12.20;99.90;;;;;;5101542;28;20080;-82
2022/11/02 00:57:39;;;;;;;4.18;1.08;;;12.20;99.90;;;;;;5068376;28;20045;-82
2022/11/02 01:00:08;;;;;;;3.42;1.00;;;12.30;99.90;;;;;;5118219;28;20554;-82
2022/11/02 01:02:36;;;;;;;6.32;1.00;;;12.30;99.90;;;;;;5069138;28;20665;-82
2022/11/02 01:05:04;;;;;;;5.03;0.75;;;12.30;99.90;;;;;;5071537;28;20114;-82
2022/11/02 01:07:31;;;;;;;5.35;1.20;;;12.20;99.90;;;;;;5072020;28;20072;-82
2022/11/02 01:09:58;;;;;;;3.70;0.90;;;12.30;99.90;;;;;;5088364;28;20072;-82
2022/11/02 01:12:25;;;;;;;6.35;1.20;;;12.20;99.90;;;;;;5088405;28;20496;-81
2022/11/02 01:14:52;;;;;;;6.20;1.00;;;12.20;99.90;;;;;;5071804;28;20065;-81
2022/11/02 01:17:19;;;;;;;3.10;0.70;;;12.20;99.90;;;;;;5071496;28;20435;-81
2022/11/02 01:19:45;;;;;;;5.78;1.02;;;11.90;99.90;;;;;;5104868;28;20447;-80
2022/11/02 01:22:12;;;;;;;8.15;0.93;;;11.70;99.90;;;;;;5071431;28;20033;-81
2022/11/02 01:24:39;;;;;;;4.63;0.63;;;11.50;99.90;;;;;;5088611;28;20465;-81
2022/11/02 01:27:05;;;;;;;6.68;0.80;;;11.40;99.90;;;;;;5088228;28;20037;-81
2022/11/02 01:29:32;;;;;;;2.97;1.02;;;11.30;99.90;;;;;;5088549;28;20132;-81
2022/11/02 01:31:59;;;;;;;5.70;0.70;;;11.20;99.90;;;;;;5088198;28;20041;-81
2022/11/02 01:34:25;;;;;;;2.60;0.57;;;11.10;99.90;;;;;;5104473;28;20072;-81
2022/11/02 01:36:52;;;;;;;5.38;0.75;;;11.00;99.90;;;;;;5087923;28;20390;-81
2022/11/02 01:39:19;;;;;;;3.28;0.60;;;10.90;99.90;;;;;;5087635;28;20536;-81
2022/11/02 01:41:51;;;;;;;1.85;0.50;;;10.80;99.90;;;;;;5087784;28;20045;-81
2022/11/02 01:44:33;;;;;;;1.15;0.50;;;10.80;99.90;;;;;;5071117;28;20043;-81
2022/11/02 01:47:02;;;;;;;1.88;0.65;;;10.80;99.90;;;;;;5071239;28;20509;-81
2022/11/02 01:49:32;;;;;;;1.20;0.50;;;10.80;99.90;;;;;;5071054;28;20102;-81
2022/11/02 01:52:06;;;;;;;2.50;0.93;;;10.80;99.90;;;;;;5071251;28;20040;-81
2022/11/02 01:54:40;;;;;;;6.85;0.70;;;10.80;99.90;;;;;;5071401;28;20052;-81
2022/11/02 01:57:16;;;;;;;3.92;0.70;;;10.80;99.90;;;;;;5070844;28;20147;-81
2022/11/02 01:59:56;;;;;;;1.10;0.50;;;10.80;99.90;;;;;;5087648;28;20044;-81
2022/11/02 02:02:24;;;;;;;3.80;0.70;;;10.70;99.90;;;;;;5087573;28;20045;-81
2022/11/02 02:04:57;;;;;;;3.40;0.68;;;10.70;99.90;;;;;;5070864;28;20041;-81
2022/11/02 02:07:25;;;;;;;3.22;0.85;;;10.60;99.90;;;;;;5070562;28;20036;-81
2022/11/02 02:09:54;;;;;;;3.33;0.90;;;10.60;99.90;;;;;;5071001;28;20110;-81
2022/11/02 02:12:22;;;;;;;6.28;0.82;;;10.60;99.90;;;;;;5054366;28;20037;-81
2022/11/02 02:14:49;;;;;;;4.28;0.90;;;10.60;99.90;;;;;;5070414;28;20064;-82
2022/11/02 02:17:37;;;;;;;3.47;0.93;;;10.60;99.90;;;;;;5037447;28;20493;-81
2022/11/02 02:20:03;;;;;;;4.88;1.02;;;10.60;99.90;;;;;;5070523;28;20041;-81
2022/11/02 02:23:00;;;;;;;2.95;1.00;;;10.50;99.90;;;;;;5086749;28;20086;-81
2022/11/02 02:25:59;;;;;;;;;;;10.50;99.90;;;;;;5070597;28;20417;-81
2022/11/02 02:28:46;;;;;;;6.18;1.17;;;10.50;99.90;;;;;;5038074;28;19960;-81
2022/11/02 02:31:21;;;;;;;5.50;1.35;;;10.50;99.90;;;;;;5069823;28;20045;-82
2022/11/02 02:33:55;;;;;;;7.75;1.17;;;10.60;99.90;;;;;;5087093;28;20072;-81
2022/11/02 02:36:29;;;;;;;4.78;1.40;;;10.50;99.90;;;;;;5070118;28;20041;-81
2022/11/02 02:39:29;;;;;;;8.68;1.42;;;10.60;99.90;;;;;;5070012;28;20501;-81
2022/11/02 02:42:21;;;;;;;8.77;1.27;;;10.70;99.90;;;;;;5070090;28;20068;-81
2022/11/02 02:45:03;;;;;;;4.15;1.25;;;10.60;99.90;;;;;;5070000;28;20104;-81
2022/11/02 02:47:33;;;;;;;9.65;1.35;;;10.70;99.90;;;;;;5070098;28;20041;-81
2022/11/02 02:50:29;;;;;;;6.10;1.38;;;10.70;99.90;;;;;;5069985;28;20045;-81
2022/11/02 02:52:58;;;;;;;4.80;1.35;;;10.70;99.90;;;;;;5059768;28;20053;-81
2022/11/02 02:55:33;;;;;;;6.53;1.38;;;10.80;99.90;;;;;;5053265;28;20052;-81
2022/11/02 02:58:02;;;;;;;8.18;1.30;;;10.90;99.90;;;;;;5070179;28;20400;-81
2022/11/02 03:00:32;;;;;;;6.78;1.80;;;10.80;99.90;;;;;;5085886;28;20056;-81
2022/11/02 03:03:01;;;;;;;6.65;1.23;;;10.90;99.90;;;;;;5069913;28;20124;-81
2022/11/02 03:05:36;;;;;;;6.85;1.30;;;10.90;99.90;;;;;;5069497;28;20126;-82
2022/11/02 03:08:11;;;;;;;5.30;1.17;;;10.90;99.90;;;;;;5086390;28;20194;-82
2022/11/02 03:10:47;;;;;;;5.18;1.23;;;10.90;99.90;;;;;;5085393;28;20119;-82
2022/11/02 03:13:24;;;;;;;8.88;1.70;;;10.90;99.90;;;;;;5069230;28;20137;-82
2022/11/02 03:15:58;;;;;;;11.20;1.52;;;10.90;99.90;;;;;;5103083;28;20049;-81
2022/11/02 03:18:37;;;;;;;5.22;1.20;;;10.90;99.90;;;;;;5069616;28;20040;-81
2022/11/02 03:21:26;;;;;;;7.68;1.17;;;10.90;99.90;;;;;;5102622;28;20548;-81
2022/11/02 03:24:11;;;;;;;3.90;0.93;;;11.00;99.90;;;;;;5117207;28;20413;-81
2022/11/02 03:26:55;;;;;;;2.50;1.10;;;10.90;99.90;;;;;;5102123;28;20067;-81
2022/11/02 03:29:32;;;;;;;3.45;0.98;;;10.90;99.90;;;;;;5069207;28;20098;-81
2022/11/02 03:32:10;;;;;;;6.25;0.90;;;10.90;99.90;;;;;;5069438;28;20544;-81
2022/11/02 03:34:42;;;;;;;6.22;0.90;;;10.80;99.90;;;;;;5084264;28;20079;-82
2022/11/02 03:37:20;;;;;;;10.80;1.63;;;10.80;99.90;;;;;;5119136;28;20087;-81
2022/11/02 03:39:53;;;;;;;6.70;1.00;;;10.80;99.90;;;;;;5069101;28;20044;-81
2022/11/02 03:42:24;;;;;;;5.72;1.15;;;10.70;99.90;;;;;;5119246;28;20041;-81
2022/11/02 03:45:00;;;;;;;5.15;1.17;;;10.70;99.90;;;;;;5102608;28;20045;-81
2022/11/02 03:47:32;;;;;;;4.60;1.15;;;10.70;99.90;;;;;;5102279;28;20067;-81
2022/11/02 03:50:01;;;;;;;3.45;1.30;;;10.70;99.90;;;;;;5069427;28;20124;-81
2022/11/02 03:52:31;;;;;;;5.28;1.15;;;10.70;99.90;;;;;;5069384;28;20067;-81
2022/11/02 03:55:01;;;;;;;6.30;1.05;;;10.60;99.90;;;;;;5068970;28;20118;-81
2022/11/02 03:57:48;;;;;;;2.20;1.00;;;10.70;99.90;;;;;;5068559;28;20124;-81
2022/11/02 04:00:28;;;;;;;7.30;1.35;;;10.60;99.90;;;;;;5119256;28;20029;-82
2022/11/02 04:02:58;;;;;;;3.85;1.00;;;10.50;99.90;;;;;;5068941;28;20044;-82
2022/11/02 04:05:33;;;;;;;7.50;1.10;;;10.50;99.90;;;;;;5059953;28;20037;-81
2022/11/02 04:16:19;;;;;;;;;;;10.50;99.90;;;;;;5085623;28;20052;-81
2022/11/02 04:21:31;;;;;;;4.70;0.95;;;10.40;99.90;;;;;;5057404;28;20049;-82
2022/11/02 04:26:43;;;;;;;7.95;1.48;;;10.40;99.90;;;;;;5071005;28;20068;-81
2022/11/02 04:29:10;;;;;;;3.20;0.80;;;10.40;99.90;;;;;;5052615;28;20490;-81
2022/11/02 04:31:36;;;;;;;3.25;0.70;;;10.40;99.90;;;;;;5052487;28;20037;-81
2022/11/02 04:34:03;;;;;;;4.45;1.20;;;10.40;99.90;;;;;;5036120;28;20131;-82
2022/11/02 04:36:31;;;;;;;5.00;1.42;;;10.40;99.90;;;;;;5035792;28;20037;-81
2022/11/02 04:38:58;;;;;;;3.85;0.80;;;10.40;99.90;;;;;;5071309;28;20029;-82
2022/11/02 04:41:43;;;;;;;4.90;0.98;;;10.40;99.90;;;;;;5072417;28;20041;-81
2022/11/02 04:44:13;;;;;;;6.75;1.00;;;10.40;99.90;;;;;;5072681;28;20044;-81
2022/11/02 04:46:41;;;;;;;3.67;0.60;;;10.40;99.90;;;;;;5072267;28;20033;-82
2022/11/02 04:49:09;;;;;;;6.57;0.70;;;10.40;99.90;;;;;;5072895;28;20033;-81
2022/11/02 04:51:38;;;;;;;4.75;1.13;;;10.40;99.90;;;;;;5105295;28;20126;-81
2022/11/02 04:54:05;;;;;;;4.78;0.80;;;10.50;99.90;;;;;;5105371;28;20453;-81
2022/11/02 04:56:32;;;;;;;4.40;0.90;;;10.50;99.90;;;;;;5088766;28;20120;-81
2022/11/02 04:58:59;;;;;;;3.80;0.75;;;10.40;99.90;;;;;;5088710;28;20045;-81
2022/11/02 05:01:28;;;;;;;4.68;0.73;;;10.40;99.90;;;;;;5088592;28;20041;-81
2022/11/02 05:03:55;;;;;;;3.72;0.88;;;10.40;99.90;;;;;;5072147;28;20037;-82
2022/11/02 05:06:23;;;;;;;2.42;0.70;;;10.40;99.90;;;;;;5088799;28;20044;-82
2022/11/02 05:08:49;;;;;;;7.38;1.00;;;10.50;99.90;;;;;;5104944;28;20076;-81
2022/11/02 05:11:17;;;;;;;4.38;1.00;;;10.40;99.90;;;;;;5071795;28;20076;-81
2022/11/02 05:13:44;;;;;;;2.88;0.73;;;10.40;99.90;;;;;;5071419;28;20064;-82
2022/11/02 05:16:14;;;;;;;2.70;0.85;;;10.40;99.90;;;;;;5072225;28;20088;-81
2022/11/02 05:18:41;;;;;;;4.80;1.02;;;10.40;99.90;;;;;;5071544;28;20066;-81
2022/11/02 05:21:09;;;;;;;1.85;0.75;;;10.40;99.90;;;;;;5088032;28;20033;-82
2022/11/02 05:23:37;;;;;;;4.43;1.00;;;10.30;99.90;;;;;;5121562;28;20124;-82
2022/11/02 05:26:07;;;;;;;4.45;0.95;;;10.40;99.90;;;;;;5072139;28;20037;-81
2022/11/02 05:28:34;;;;;;;1.80;0.70;;;10.30;99.90;;;;;;5121659;28;20092;-82
2022/11/02 05:31:02;;;;;;;7.40;1.83;;;10.40;99.90;;;;;;5087966;28;20492;-81
2022/11/02 05:33:30;;;;;;;8.20;1.08;;;10.40;99.90;;;;;;5121503;28;20412;-81
2022/11/02 05:35:58;;;;;;;9.38;1.60;;;10.40;99.90;;;;;;5087749;28;20041;-81
2022/11/02 05:38:26;;;;;;;10.70;1.90;;;10.40;99.90;;;;;;5071680;28;20049;-82
2022/11/02 05:40:54;;;;;;;8.05;1.48;;;10.40;99.90;;;;;;5071195;28;20450;-81
2022/11/02 05:43:22;;;;;;;2.20;0.90;;;10.40;99.90;;;;;;5054986;28;20489;-81
2022/11/02 05:45:59;;;;;;;6.22;1.17;;;10.40;99.90;;;;;;5071281;28;20155;-81
2022/11/02 05:48:30;;;;;;;4.43;1.13;;;10.40;99.90;;;;;;5087960;28;20040;-81
2022/11/02 05:50:58;;;;;;;2.55;0.90;;;10.40;99.90;;;;;;5087602;28;20128;-81
2022/11/02 05:53:26;;;;;;;8.43;1.45;;;10.30;99.90;;;;;;5055140;28;20041;-82
2022/11/02 05:55:57;;;;;;;7.20;1.40;;;10.30;99.90;;;;;;5054915;28;20083;-81
2022/11/02 05:58:25;;;;;;;3.42;0.98;;;10.30;99.90;;;;;;5087977;28;20045;-81
2022/11/02 06:00:51;;;;;;;6.05;1.30;;;10.30;99.90;;;;;;5054539;28;20112;-81
2022/11/02 06:03:19;;;;;;;5.22;1.33;;;10.30;99.90;;;;;;5054444;28;20048;-81
2022/11/02 06:05:46;;;;;;;4.38;1.40;;;10.20;99.90;;;;;;5071018;28;20033;-81
2022/11/02 06:08:12;;;;;;;4.85;1.10;;;10.20;99.90;;;;;;5054170;28;20051;-81
2022/11/02 06:10:42;;;;;;;4.05;1.23;;;10.20;99.90;;;;;;5087105;28;20405;-81
2022/11/02 06:13:08;;;;;;;5.47;1.02;;;10.60;99.90;;;;;;5087676;28;20140;-81
2022/11/02 06:15:35;;;;;;;4.68;0.80;;;10.30;99.90;;;;;;5087448;28;20508;-81
2022/11/02 06:18:02;;;;;;;4.40;1.02;;;10.30;99.90;;;;;;5094951;28;20428;-81
2022/11/02 06:20:28;;;;;;;5.97;1.10;;;10.20;99.90;;;;;;5070598;28;20529;-81
2022/11/02 06:22:55;;;;;;;5.45;1.00;;;10.30;99.90;;;;;;5086780;28;20135;-81
2022/11/02 06:25:22;;;;;;;4.22;1.42;;;10.20;99.90;;;;;;5103880;28;20037;-81
2022/11/02 06:27:55;;;;;;;8.15;1.23;;;10.30;99.90;;;;;;5103242;28;20043;-82
2022/11/02 06:30:23;;;;;;;5.75;1.23;;;10.30;99.90;;;;;;5054147;28;20125;-82
2022/11/02 06:32:51;;;;;;;3.97;1.02;;;10.20;99.90;;;;;;5070152;28;20044;-81
2022/11/02 06:35:20;;;;;;;10.15;1.52;;;10.20;99.90;;;;;;5069499;28;20044;-82
2022/11/02 06:37:47;;;;;;;6.15;1.15;;;10.20;99.90;;;;;;5069631;28;20049;-82
2022/11/02 06:40:14;;;;;;;5.70;1.02;;;10.20;99.90;;;;;;5053360;28;20041;-82
2022/11/02 06:42:41;;;;;;;4.28;1.17;;;10.20;99.90;;;;;;5103437;28;20044;-82
2022/11/02 06:45:08;;;;;;;3.40;0.80;;;10.20;99.90;;;;;;5086511;28;20553;-81
2022/11/02 06:47:36;;;;;;;5.68;1.30;;;10.20;99.90;;;;;;5087007;28;20037;-81
2022/11/02 06:50:05;;;;;;;10.05;1.38;;;10.20;99.90;;;;;;5103598;28;20080;-81
2022/11/02 06:52:31;;;;;;;5.35;1.00;;;10.30;99.90;;;;;;5103203;28;20043;-81
2022/11/02 06:54:58;;;;;;;5.95;1.30;;;10.30;99.90;;;;;;5053425;28;20040;-81
2022/11/02 06:57:25;;;;;;;6.97;1.05;;;10.30;99.90;;;;;;5037591;28;20040;-82
2022/11/02 06:59:52;;;;;;;6.20;1.35;;;10.40;99.90;;;;;;5067312;28;20174;-82
2022/11/02 07:02:20;;;;;;;9.52;1.33;;;10.50;99.90;;;;;;5044248;28;20048;-82
2022/11/02 07:04:48;;;;;;;3.88;1.15;;;10.50;99.90;;;;;;5064086;28;20052;-81
2022/11/02 07:07:15;;;;;;;7.03;1.50;;;10.60;99.90;;;;;;5048000;28;20033;-82
2022/11/02 07:09:41;;;;;;;6.25;1.52;;;10.60;99.90;;;;;;5053171;28;20051;-82
2022/11/02 07:12:08;;;;;;;6.90;1.23;;;10.60;99.90;;;;;;5053442;28;20489;-82
2022/11/02 07:14:35;;;;;;;6.60;1.27;;;10.60;99.90;;;;;;5036721;28;20409;-82
2022/11/02 07:17:01;;;;;;;5.07;1.40;;;10.60;99.90;;;;;;5058012;28;20080;-82
2022/11/02 07:19:28;;;;;;;7.78;1.40;;;10.60;99.90;;;;;;5069634;28;20501;-81
2022/11/02 07:21:55;;;;;;;6.78;1.30;;;10.70;99.90;;;;;;5085426;28;20041;-82
2022/11/02 07:24:21;;;;;;;4.38;1.35;;;10.60;99.90;;;;;;5053075;28;20032;-82
2022/11/02 07:26:49;;;;;;;9.60;1.75;;;10.60;99.90;;;;;;5086120;28;20040;-81
2022/11/02 07:29:16;;;;;;;5.53;1.10;;;10.60;99.90;;;;;;5107615;28;20497;-81
2022/11/02 07:31:43;;;;;;;6.75;1.20;;;10.60;99.90;;;;;;5077795;28;20408;-81
2022/11/02 07:34:11;;;;;;;5.60;1.40;;;10.70;99.90;;;;;;5060488;28;20103;-81
2022/11/02 07:36:38;;;;;;;3.33;1.20;;;10.60;99.90;;;;;;5063966;28;20048;-81
2022/11/02 07:39:06;;;;;;;6.03;1.00;;;10.70;99.90;;;;;;5058157;28;20041;-81
2022/11/02 07:41:33;;;;;;;4.78;1.15;;;10.70;99.90;;;;;;5080020;28;20040;-81
2022/11/02 07:44:00;;;;;;;4.30;1.17;;;10.70;99.90;;;;;;5041434;28;20033;-81
2022/11/02 07:46:27;;;;;;;5.32;1.20;;;10.70;99.90;;;;;;5068920;28;20045;-81
2022/11/02 07:48:54;;;;;;;6.25;1.50;;;10.70;99.90;;;;;;5040828;28;20032;-81
2022/11/02 07:51:20;;;;;;;6.18;1.73;;;10.70;99.90;;;;;;5061970;28;20052;-82
2022/11/02 07:53:47;;;;;;;8.80;1.58;;;10.80;99.90;;;;;;5055335;28;20490;-81
2022/11/02 07:56:14;;;;;;;3.33;0.90;;;10.70;99.90;;;;;;5085722;28;20132;-81
2022/11/02 07:58:40;;;;;;;5.25;1.00;;;10.70;99.90;;;;;;5040269;28;20050;-82
2022/11/02 08:01:07;;;;;;;9.15;1.50;;;10.70;99.90;;;;;;5055251;28;20067;-82
2022/11/02 08:03:34;;;;;;;3.00;0.93;;;10.70;99.90;;;;;;5068828;28;20182;-82
2022/11/02 08:06:04;;;;;;;6.97;1.77;;;10.80;99.90;;;;;;5036175;28;20037;-82
2022/11/02 08:08:30;;;;;;;15.43;1.50;;;10.70;99.90;;;;;;5068989;28;20036;-83
2022/11/02 08:11:03;;;;;;;5.57;0.88;;;10.80;99.90;;;;;;5044120;28;20408;-83
2022/11/02 08:13:30;;;;;;;5.63;1.30;;;10.80;99.90;;;;;;5101825;28;20055;-83
2022/11/02 08:15:57;;;;;;;10.10;1.25;;;10.70;99.90;;;;;;5056427;28;20144;-79
2022/11/02 08:18:25;;;;;;;8.00;1.42;;;10.70;99.90;;;;;;5089500;28;20175;-84
2022/11/02 08:20:54;;;;;;;7.38;1.05;;;10.70;99.90;;;;;;5072548;28;20083;-84
2022/11/02 08:23:21;;;;;;;6.93;1.27;;;10.80;99.90;;;;;;5123272;28;20041;-85
2022/11/02 08:25:49;;;;;;;6.75;1.05;;;10.80;99.90;;;;;;5094854;28;20044;-87
2022/11/02 08:28:22;;;;;;;7.68;1.00;;;10.90;99.90;;;;;;5067855;28;20044;-85
2022/11/02 08:30:49;;;;;;;5.43;1.33;;;10.90;99.90;;;;;;5072862;28;20044;-85
2022/11/02 08:33:17;;;;;;;3.67;0.95;;;10.90;99.90;;;;;;5122730;28;20390;-86
2022/11/02 08:35:45;;;;;;;6.65;1.50;;;10.90;99.90;;;;;;5073823;28;20049;-85
2022/11/02 08:38:13;;;;;;;6.32;1.30;;;11.00;99.90;;;;;;5086781;28;20079;-86
2022/11/02 08:40:40;;;;;;;11.90;1.20;;;10.90;99.90;;;;;;5067713;28;20033;-86
2022/11/02 08:43:09;;;;;;;5.63;0.93;;;11.00;99.90;;;;;;5077403;28;20239;-85
2022/11/02 08:45:37;;;;;;;7.97;1.10;;;11.00;99.90;;;;;;5086134;28;20037;-84
2022/11/02 08:48:05;;;;;;;4.78;1.10;;;11.10;99.90;;;;;;5063496;28;20033;-84
2022/11/02 08:50:32;;;;;;;4.40;1.00;;;11.10;99.90;;;;;;5054781;28;20044;-84
2022/11/02 08:52:59;;;;;;;13.18;1.45;;;11.10;99.90;;;;;;5084033;28;20037;-84
2022/11/02 08:55:26;;;;;;;5.13;1.20;;;11.20;99.90;;;;;;5039155;28;20040;-84
2022/11/02 08:57:57;;;;;;;4.72;1.08;;;11.20;99.90;;;;;;5038870;28;20174;-85
2022/11/02 09:00:27;;;;;;;6.47;1.00;;;11.20;99.90;;;;;;5107546;28;20041;-84
2022/11/02 09:02:59;;;;;;;9.10;0.98;;;11.20;99.90;;;;;;5092671;28;20037;-85
2022/11/02 09:05:27;;;;;;;7.07;1.10;;;11.20;99.90;;;;;;5072241;28;20037;-84
2022/11/02 09:07:58;;;;;;;6.07;0.95;;;11.20;99.90;;;;;;5055519;28;20037;-85
2022/11/02 09:10:27;;;;;;;5.80;1.10;;;11.30;99.90;;;;;;5072197;28;20047;-85
2022/11/02 09:12:54;;;;;;;4.72;0.80;;;11.30;99.90;;;;;;5071593;28;20080;-85
2022/11/02 09:15:21;;;;;;;6.55;1.35;;;11.30;99.90;;;;;;5055358;28;20059;-84
2022/11/02 09:17:48;;;;;;;2.10;0.60;;;11.40;99.90;;;;;;5063378;28;20582;-84
2022/11/02 09:20:16;;;;;;;2.08;0.70;;;11.50;99.90;;;;;;5035281;28;20080;-84
2022/11/02 09:22:44;;;;;;;4.18;0.98;;;11.60;99.90;;;;;;5051916;28;20502;-84
2022/11/02 09:25:12;;;;;;;5.20;1.00;;;11.70;99.90;;;;;;5033885;28;20037;-84
2022/11/02 09:27:39;;;;;;;8.02;0.80;;;11.70;99.90;;;;;;5035008;28;20092;-84
2022/11/02 09:30:07;;;;;;;6.88;1.10;;;11.70;99.90;;;;;;5040054;28;20037;-84
2022/11/02 09:32:34;;;;;;;5.97;0.90;;;11.80;99.90;;;;;;5083860;28;20044;-84
2022/11/02 09:35:05;;;;;;;4.25;0.90;;;11.90;99.90;;;;;;5074717;28;20086;-83
2022/11/02 09:37:32;;;;;;;6.75;0.85;;;12.00;99.90;;;;;;5079099;28;20412;-84
2022/11/02 09:39:59;;;;;;;3.75;1.10;;;12.00;99.90;;;;;;5074081;28;20032;-84
2022/11/02 09:42:53;;;;;;;2.83;0.90;;;12.10;99.90;;;;;;5074981;28;20539;-84
2022/11/02 09:45:20;;;;;;;3.92;0.90;;;12.10;99.90;;;;;;5107550;28;20048;-84
2022/11/02 09:47:53;;;;;;;3.30;0.70;;;12.10;99.90;;;;;;5062933;28;20436;-84
2022/11/02 09:50:28;;;;;;;3.33;0.95;;;12.20;99.90;;;;;;5071147;28;20045;-84
2022/11/02 09:53:03;;;;;;;5.20;1.15;;;12.20;99.90;;;;;;5071313;28;20490;-84
2022/11/02 09:55:35;;;;;;;3.03;0.87;;;12.20;99.90;;;;;;5070896;28;20041;-83
2022/11/02 09:58:10;;;;;;;6.47;1.00;;;12.20;99.90;;;;;;5070572;28;20048;-84
2022/11/02 10:00:39;;;;;;;;;;;12.10;99.90;;;;;;5121289;28;20041;-85
2022/11/02 10:03:28;;;;;;;6.22;0.90;;;12.10;99.90;;;;;;5070165;28;19921;-83
2022/11/02 10:06:02;;;;;;;5.57;1.00;;;12.20;99.90;;;;;;5120653;28;20033;-83
2022/11/02 10:08:45;;;;;;;12.15;1.10;;;12.20;99.90;;;;;;5070025;28;20037;-83
2022/11/02 10:11:23;;;;;;;8.05;1.15;;;12.30;99.90;;;;;;5069864;28;20048;-83
2022/11/02 10:13:59;;;;;;;10.75;1.00;;;12.30;99.90;;;;;;5070214;28;20048;-84
2022/11/02 10:16:32;;;;;;;5.60;0.80;;;12.30;99.90;;;;;;5086500;28;20429;-85
2022/11/02 10:19:02;;;;;;;6.95;0.82;;;12.40;99.90;;;;;;5070493;28;20082;-84
2022/11/02 10:21:33;;;;;;;6.47;0.95;;;12.60;99.90;;;;;;5069994;28;20037;-83
2022/11/02 10:24:15;;;;;;;4.55;0.95;;;12.80;99.90;;;;;;5070173;28;20043;-83
2022/11/02 10:26:42;;;;;;;7.18;1.00;;;13.00;99.90;;;;;;5070485;28;20041;-84
2022/11/02 10:30:00;;;;;;;2.22;0.88;;;13.10;99.90;;;;;;5053795;28;20527;-83
2022/11/02 10:32:29;;;;;;;4.00;0.90;;;13.10;99.90;;;;;;4993552;28;20042;-83
2022/11/02 10:34:56;;;;;;;2.60;0.60;;;13.20;99.90;;;;;;5039233;28;20052;-83
2022/11/02 10:37:47;;;;;;;3.08;0.93;;;13.20;99.90;;;;;;5053179;28;20041;-82
2022/11/02 10:40:34;;;;;;;4.22;1.00;;;13.10;99.90;;;;;;5069804;28;20037;-83
2022/11/02 10:43:14;;;;;;;6.63;0.85;;;13.10;99.90;;;;;;5056221;28;20558;-83
2022/11/02 10:46:11;;;;;;;8.20;1.08;;;13.20;99.90;;;;;;5069980;28;20051;-83
2022/11/02 10:48:49;;;;;;;;;;;13.30;99.90;;;;;;5050876;28;20046;-83
2022/11/02 10:51:16;;;;;;;4.88;0.82;;;13.30;99.90;;;;;;5066425;28;19917;-83
2022/11/02 10:53:49;;;;;;;2.33;0.70;;;13.20;99.90;;;;;;5066612;28;20068;-83
2022/11/02 10:56:17;;;;;;;3.83;0.95;;;13.10;99.90;;;;;;5066760;28;20508;-83
2022/11/02 10:58:51;;;;;;;5.40;1.25;;;12.90;99.90;;;;;;5053499;28;20041;-83
2022/11/02 11:01:18;;;;;;;5.85;0.85;;;12.80;99.90;;;;;;5085915;28;20083;-84
2022/11/02 11:04:03;;;;;;;4.53;0.80;;;12.80;99.90;;;;;;5053368;28;20037;-83
2022/11/02 11:06:39;;;;;;;7.97;0.82;;;12.70;99.90;;;;;;5069555;28;20515;-84
2022/11/02 11:09:22;;;;;;;7.03;0.88;;;12.70;99.90;;;;;;5079363;28;20067;-86
2022/11/02 11:12:06;;;;;;;4.63;0.80;;;12.80;99.90;;;;;;5100623;28;20474;-85
2022/11/02 11:14:44;;;;;;;8.27;1.10;;;13.00;99.90;;;;;;5069544;28;20077;-87
2022/11/02 11:17:17;;;;;;;4.63;1.00;;;13.00;99.90;;;;;;5069382;28;20045;-85
2022/11/02 11:19:50;;;;;;;2.78;0.75;;;13.00;99.90;;;;;;5074535;28;20420;-87
2022/11/02 11:22:40;;;;;;;5.72;1.00;;;13.10;99.90;;;;;;5053275;28;20053;-86
2022/11/02 11:25:24;;;;;;;6.95;1.00;;;13.20;99.90;;;;;;5080231;28;20096;-86
2022/11/02 11:27:53;;;;;;;3.97;1.13;;;13.20;99.90;;;;;;5072242;28;20086;-84
2022/11/02 11:30:27;;;;;;;4.63;1.10;;;13.30;99.90;;;;;;5052834;28;20045;-84
2022/11/02 11:32:55;;;;;;;9.20;1.25;;;13.30;99.90;;;;;;5069109;28;20048;-85
2022/11/02 11:35:23;;;;;;;4.10;0.90;;;13.20;99.90;;;;;;5099024;28;20041;-85
2022/11/02 11:38:01;;;;;;;2.40;0.70;;;13.10;99.90;;;;;;5073818;28;20128;-84
2022/11/02 11:40:34;;;;;;;13.23;1.27;;;13.00;99.90;;;;;;5081373;28;20065;-85
2022/11/02 11:43:04;;;;;;;5.07;0.82;;;13.00;99.90;;;;;;5094311;28;20047;-86
2022/11/02 11:45:32;;;;;;;4.65;0.80;;;12.90;99.90;;;;;;5085151;28;20413;-85
2022/11/02 11:48:19;;;;;;;6.25;1.08;;;12.80;99.90;;;;;;5068253;28;20056;-85
2022/11/02 11:50:47;;;;;;;8.60;1.30;;;12.70;99.90;;;;;;5080138;28;20382;-85
2022/11/02 11:53:21;;;;;;;8.85;1.80;;;12.60;99.90;;;;;;5051898;28;20040;-84
2022/11/02 11:55:57;;;;;;;4.75;0.90;;;12.50;99.90;;;;;;5068510;28;20041;-85
2022/11/02 11:58:26;;;;;;;3.58;0.73;;;12.40;99.90;;;;;;5073732;28;20068;-84
2022/11/02 12:01:15;;;;;;;8.88;1.10;;;12.30;99.90;;;;;;5061845;28;20498;-84
2022/11/02 12:03:54;;;;;;;6.90;0.95;;;12.20;99.90;;;;;;5066585;28;20048;-84
2022/11/02 12:06:31;;;;;;;3.13;0.93;;;12.20;99.90;;;;;;5068696;28;20086;-85
2022/11/02 12:09:36;;;;;;;6.43;1.13;;;12.20;99.90;;;;;;5068270;28;20481;-85
2022/11/02 12:12:06;;;;;;;7.95;0.98;;;12.30;99.90;;;;;;5082176;28;20041;-85
2022/11/02 12:14:59;;;;;;;2.30;0.77;;;12.20;99.90;;;;;;5064974;28;20068;-84
2022/11/02 12:17:42;;;;;;;3.58;1.00;;;12.20;99.90;;;;;;5048469;28;20555;-88
2022/11/02 12:20:22;;;;;;;4.10;0.65;;;12.20;99.90;;;;;;5065255;28;20088;-85
2022/11/02 12:23:00;;;;;;;3.45;0.77;;;12.30;99.90;;;;;;5049288;28;20046;-85
2022/11/02 12:25:48;;;;;;;5.93;0.80;;;12.50;99.90;;;;;;5089560;28;20048;-83
2022/11/02 12:28:42;;;;;;;6.22;0.73;;;12.60;99.90;;;;;;5048520;28;20038;-82
2022/11/02 12:31:40;;;;;;;2.80;0.70;;;12.70;99.90;;;;;;5086024;28;20515;-85
2022/11/02 12:34:16;;;;;;;4.05;0.90;;;12.70;99.90;;;;;;5068847;28;20231;-86
2022/11/02 12:37:07;;;;;;;4.95;1.00;;;12.80;99.90;;;;;;5085627;28;20045;-86
2022/11/02 12:40:01;;;;;;;3.45;0.60;;;12.90;99.90;;;;;;5090423;28;20378;-86
2022/11/02 12:42:35;;;;;;;5.72;0.70;;;12.90;99.90;;;;;;5079511;28;20048;-86
2022/11/02 12:45:01;;;;;;;4.07;0.73;;;12.90;99.90;;;;;;5084733;28;20091;-85
2022/11/02 12:47:59;;;;;;;5.75;0.73;;;12.90;99.90;;;;;;5088197;28;20797;-85
2022/11/02 12:51:23;;;;;;;5.88;0.65;;;12.80;99.90;;;;;;5046403;28;20082;-86
2022/11/02 12:53:59;;;;;;;4.88;0.90;;;12.90;99.90;;;;;;4992649;28;20560;-86
2022/11/02 12:56:41;;;;;;;3.53;0.75;;;13.00;99.90;;;;;;4992582;28;20042;-85
2022/11/02 12:59:20;;;;;;;4.20;0.65;;;13.10;99.90;;;;;;5049030;28;20489;-85
2022/11/02 13:01:51;;;;;;;5.53;0.85;;;13.10;99.90;;;;;;5075158;28;20052;-86
2022/11/02 13:04:24;;;;;;;4.20;0.50;;;13.20;99.90;;;;;;5088712;28;20040;-84
2022/11/02 13:06:57;;;;;;;4.88;0.93;;;13.20;99.90;;;;;;5088754;28;20123;-85
2022/11/02 13:09:41;;;;;;;3.45;0.65;;;13.30;99.90;;;;;;5088936;28;20049;-85
2022/11/02 13:12:21;;;;;;;7.18;1.15;;;13.30;99.90;;;;;;5071303;28;20066;-85
2022/11/02 13:14:50;;;;;;;8.13;0.70;;;13.30;99.90;;;;;;5121762;28;20056;-85
2022/11/02 13:17:26;;;;;;;4.95;0.90;;;13.30;99.90;;;;;;5081652;28;20135;-85
2022/11/02 13:20:19;;;;;;;;;;;13.30;99.90;;;;;;5071454;28;20033;-84
2022/11/02 13:22:52;;;;;;;5.32;0.70;;;13.30;99.90;;;;;;5049122;28;19921;-84
2022/11/02 13:25:52;;;;;;;3.03;0.63;;;13.30;99.90;;;;;;5102641;28;20037;-87
2022/11/02 13:28:53;;;;;;;6.22;0.90;;;13.30;99.90;;;;;;5072030;28;20052;-87